Time;durP1;ratioP1;P1;durP2;ratioP2;P2;SDS_P1;SDS_P2;PMS_P1;PMS_P2;Temp;Humidity;BMP_temperature;BMP_pressure;BME280_temperature;BME280_humidity;BME280_pressure;Samples;Min_cycle;Max_cycle;Signal;HPM_P1;HPM_P2
2023/06/16 00:01:35;;;;;;;6.47;4.00;;;15.30;1.00;;;;;;5064054;28;20774;-79
2023/06/16 00:04:06;;;;;;;17.87;4.27;;;15.30;1.00;;;;;;5056797;28;20471;-76
2023/06/16 00:06:32;;;;;;;4.83;3.27;;;15.30;1.00;;;;;;5051343;28;20410;-73
2023/06/16 00:09:00;;;;;;;7.93;4.53;;;15.30;1.00;;;;;;5049423;28;20486;-73
2023/06/16 00:11:27;;;;;;;4.67;3.80;;;15.80;1.00;;;;;;5055518;28;20466;-73
2023/06/16 00:13:54;;;;;;;9.90;3.47;;;15.40;1.00;;;;;;5055192;28;20442;-73
2023/06/16 00:16:23;;;;;;;5.60;3.60;;;15.40;1.00;;;;;;5056440;28;20760;-73
2023/06/16 00:18:51;;;;;;;7.90;4.00;;;15.30;1.00;;;;;;5055299;28;20426;-72
2023/06/16 00:21:35;;;;;;;5.57;3.90;;;15.40;1.00;;;;;;5056477;28;20717;-73
2023/06/16 00:24:06;;;;;;;8.40;3.80;;;15.40;1.00;;;;;;5054890;28;20467;-73
2023/06/16 00:26:32;;;;;;;4.63;3.47;;;15.40;1.00;;;;;;5056146;28;20425;-73
2023/06/16 00:28:58;;;;;;;5.73;3.80;;;15.30;1.00;;;;;;5053038;28;20441;-73
2023/06/16 00:31:25;;;;;;;8.40;4.30;;;15.30;1.00;;;;;;5047379;28;20464;-73
2023/06/16 00:33:52;;;;;;;12.37;3.83;;;15.30;1.00;;;;;;5065928;28;20501;-73
2023/06/16 00:36:22;;;;;;;6.50;4.40;;;15.30;1.00;;;;;;5056056;28;20426;-79
2023/06/16 00:38:48;;;;;;;7.73;3.90;;;15.30;1.00;;;;;;5054657;28;20418;-78
2023/06/16 00:41:16;;;;;;;6.47;4.00;;;15.30;1.00;;;;;;5055232;28;20480;-78
2023/06/16 00:43:46;;;;;;;8.33;3.80;;;15.20;1.00;;;;;;5061238;28;20659;-78
2023/06/16 00:46:33;;;;;;;7.03;3.40;;;15.20;1.00;;;;;;5055484;28;20409;-78
2023/06/16 00:49:05;;;;;;;5.93;3.80;;;15.20;1.00;;;;;;5061230;28;20498;-78
2023/06/16 00:51:34;;;;;;;6.97;3.80;;;15.20;1.00;;;;;;5058116;28;20460;-78
2023/06/16 00:54:01;;;;;;;7.90;3.90;;;15.10;1.00;;;;;;5055962;28;20592;-78
2023/06/16 00:56:27;;;;;;;6.77;3.73;;;15.20;1.00;;;;;;5054893;28;20422;-78
2023/06/16 00:59:05;;;;;;;11.03;3.73;;;15.10;1.00;;;;;;5063817;28;20417;-78
2023/06/16 01:01:31;;;;;;;7.47;4.00;;;15.10;1.00;;;;;;5058669;28;20462;-78
2023/06/16 01:03:57;;;;;;;7.67;3.80;;;15.10;1.00;;;;;;5063823;28;20544;-79
2023/06/16 01:06:48;;;;;;;6.70;4.40;;;15.00;1.00;;;;;;5058997;28;20194;-79
2023/06/16 01:09:51;;;;;;;12.07;4.03;;;15.00;1.00;;;;;;5057617;28;20487;-78
2023/06/16 01:12:23;;;;;;;4.40;3.47;;;15.00;1.00;;;;;;5055241;28;20477;-78
2023/06/16 01:15:34;;;;;;;8.83;4.03;;;15.00;1.00;;;;;;5055310;28;20410;-78
2023/06/16 01:18:05;;;;;;;9.13;3.70;;;15.00;1.00;;;;;;5054965;28;20405;-79
2023/06/16 01:20:41;;;;;;;6.80;3.97;;;15.00;1.00;;;;;;5053615;28;20491;-73
2023/06/16 01:23:20;;;;;;;6.53;4.00;;;15.00;1.00;;;;;;5056069;28;20445;-73
2023/06/16 01:25:48;;;;;;;9.50;4.20;;;15.00;1.00;;;;;;5051318;28;20408;-73
2023/06/16 01:28:18;;;;;;;5.37;4.17;;;15.00;1.00;;;;;;5044845;28;20402;-74
2023/06/16 01:30:50;;;;;;;9.17;4.13;;;15.00;1.00;;;;;;5053427;28;20436;-73
2023/06/16 01:33:20;;;;;;;6.63;4.03;;;15.00;1.00;;;;;;5049632;28;20478;-73
2023/06/16 01:36:05;;;;;;;6.90;4.10;;;15.00;1.00;;;;;;5049932;28;20410;-78
2023/06/16 01:38:32;;;;;;;8.70;4.93;;;15.00;1.00;;;;;;5051307;28;20433;-79
2023/06/16 01:40:59;;;;;;;7.57;4.20;;;15.00;1.00;;;;;;5046595;28;20744;-79
2023/06/16 01:43:26;;;;;;;10.90;4.00;;;15.00;1.00;;;;;;5050265;28;20509;-79
2023/06/16 01:46:05;;;;;;;8.47;4.60;;;15.00;1.00;;;;;;5044366;28;20405;-79
2023/06/16 01:48:31;;;;;;;7.10;3.97;;;15.00;1.00;;;;;;5054614;28;20388;-78
2023/06/16 01:50:57;;;;;;;6.60;4.10;;;15.00;1.00;;;;;;5054643;28;20408;-73
2023/06/16 01:53:23;;;;;;;10.47;4.30;;;15.00;1.00;;;;;;5054347;28;20462;-73
2023/06/16 01:55:52;;;;;;;7.40;4.20;;;15.00;1.00;;;;;;5053131;28;20405;-73
2023/06/16 01:58:25;;;;;;;5.00;3.80;;;15.00;1.00;;;;;;5051817;28;20188;-73
2023/06/16 02:01:18;;;;;;;6.00;4.17;;;14.90;1.00;;;;;;5055586;28;20991;-73
2023/06/16 02:04:24;;;;;;;7.50;3.67;;;14.90;1.00;;;;;;5058479;28;20436;-73
2023/06/16 02:06:57;;;;;;;7.80;4.10;;;14.80;1.00;;;;;;5000136;28;20766;-73
2023/06/16 02:09:25;;;;;;;7.20;4.40;;;14.80;1.00;;;;;;4992418;28;20413;-73
2023/06/16 02:11:52;;;;;;;5.63;4.00;;;14.70;1.00;;;;;;5009260;28;20461;-73
2023/06/16 02:14:19;;;;;;;7.37;5.10;;;14.70;1.00;;;;;;4996078;28;20436;-73
2023/06/16 02:16:51;;;;;;;6.33;3.63;;;14.60;1.00;;;;;;5002726;28;20881;-73
2023/06/16 02:19:17;;;;;;;6.63;4.00;;;14.60;1.00;;;;;;5002473;28;20439;-73
2023/06/16 02:21:58;;;;;;;11.10;3.90;;;14.60;1.00;;;;;;5010735;28;20541;-78
2023/06/16 02:24:35;;;;;;;6.10;3.97;;;14.50;1.00;;;;;;5012436;28;20187;-79
2023/06/16 02:27:16;;;;;;;9.47;5.10;;;14.50;1.00;;;;;;5011554;28;20426;-79
2023/06/16 02:29:58;;;;;;;13.03;4.63;;;14.40;1.00;;;;;;4989748;28;20420;-78
2023/06/16 02:32:36;;;;;;;8.10;4.47;;;14.40;1.00;;;;;;5000565;28;20505;-79
2023/06/16 02:35:22;;;;;;;33.37;4.20;;;14.30;1.00;;;;;;4998033;28;20517;-79
2023/06/16 02:37:52;;;;;;;7.07;4.40;;;14.30;1.00;;;;;;4999470;28;20547;-74
2023/06/16 02:40:18;;;;;;;7.20;4.07;;;14.30;1.00;;;;;;5019677;28;20970;-74
2023/06/16 02:42:44;;;;;;;6.97;4.03;;;14.20;1.00;;;;;;5043707;28;20465;-73
2023/06/16 02:45:10;;;;;;;6.83;4.20;;;14.20;1.00;;;;;;5053509;28;20207;-73
2023/06/16 02:47:35;;;;;;;8.43;4.43;;;14.10;1.00;;;;;;5053328;28;20182;-73
2023/06/16 02:50:01;;;;;;;8.43;4.30;;;14.10;1.00;;;;;;5053668;28;20406;-74
2023/06/16 02:52:27;;;;;;;8.47;4.70;;;14.00;1.00;;;;;;5052901;28;20218;-73
2023/06/16 02:55:28;;;;;;;5.20;3.90;;;13.90;1.00;;;;;;5053549;28;20176;-85
2023/06/16 02:58:05;;;;;;;5.93;4.27;;;13.90;1.00;;;;;;5049661;28;20385;-83
2023/06/16 03:03:53;;;;;;;5.47;3.87;;;13.90;1.00;;;;;;5053583;28;20592;-84
2023/06/16 03:07:10;;;;;;;7.63;4.30;;;13.80;1.00;;;;;;5052890;28;20459;-85
2023/06/16 03:10:07;;;;;;;5.80;4.60;;;13.70;1.00;;;;;;5048293;28;20549;-84
2023/06/16 03:22:39;;;;;;;5.30;3.80;;;;;;;;;;5052763;28;20527;-83
2023/06/16 03:28:27;;;;;;;8.27;4.10;;;13.30;1.00;;;;;;5043620;28;20414;-84
2023/06/16 03:31:28;;;;;;;8.30;4.40;;;13.30;1.00;;;;;;5053609;28;20389;-84
2023/06/16 03:33:54;;;;;;;9.23;4.40;;;13.20;1.00;;;;;;5052146;28;20183;-84
2023/06/16 03:36:22;;;;;;;7.43;4.50;;;13.10;1.00;;;;;;5061330;28;20429;-88
2023/06/16 03:38:49;;;;;;;8.60;4.40;;;13.10;1.00;;;;;;5046608;28;20188;-88
2023/06/16 03:44:37;;;;;;;8.17;4.53;;;13.00;1.00;;;;;;5046483;28;20388;-89
2023/06/16 03:50:25;;;;;;;10.90;4.87;;;13.10;1.00;;;;;;5066892;28;20768;-88
2023/06/16 03:53:28;;;;;;;13.57;4.57;;;13.00;1.00;;;;;;5052151;28;20426;-89
2023/06/16 03:56:22;;;;;;;9.40;4.90;;;13.00;1.00;;;;;;5053380;28;20419;-88
2023/06/16 04:02:09;;;;;;;6.07;4.60;;;13.20;1.00;;;;;;5043529;28;20431;-89
2023/06/16 04:05:10;;;;;;;6.70;4.60;;;13.30;1.00;;;;;;5056533;28;20488;-89
2023/06/16 04:07:38;;;;;;;9.73;4.50;;;13.30;1.00;;;;;;5047880;28;20190;-85
2023/06/16 04:10:06;;;;;;;6.53;4.90;;;13.30;1.00;;;;;;5052500;28;20772;-85
2023/06/16 04:15:53;;;;;;;6.30;4.33;;;13.30;1.00;;;;;;5051960;28;20500;-85
2023/06/16 04:18:19;;;;;;;8.13;4.53;;;13.40;1.00;;;;;;5050565;28;20425;-85
2023/06/16 04:21:17;;;;;;;12.33;4.90;;;13.60;1.00;;;;;;5055675;28;20176;-86
2023/06/16 04:23:43;;;;;;;11.03;4.77;;;13.60;1.00;;;;;;5055747;28;20195;-86
2023/06/16 04:26:29;;;;;;;5.60;4.20;;;13.90;1.00;;;;;;5055951;28;20433;-85
2023/06/16 04:32:17;;;;;;;5.43;4.40;;;14.00;1.00;;;;;;5056519;28;20437;-86
2023/06/16 04:34:43;;;;;;;7.77;4.40;;;14.10;1.00;;;;;;5054108;28;20412;-85
2023/06/16 04:37:22;;;;;;;6.73;4.63;;;14.10;1.00;;;;;;5070134;28;20425;-86
2023/06/16 04:43:16;;;;;;;7.60;4.57;;;14.10;1.00;;;;;;5059167;28;20494;-89
2023/06/16 04:46:28;;;;;;;6.40;4.60;;;14.20;1.00;;;;;;5063853;28;20437;-88
2023/06/16 04:52:15;;;;;;;9.57;5.77;;;14.20;1.00;;;;;;5043882;28;20433;-88
2023/06/16 04:55:04;;;;;;;14.33;4.53;;;14.30;1.00;;;;;;5051678;28;20460;-89
2023/06/16 05:01:04;;;;;;;7.17;4.40;;;14.60;1.00;;;;;;5054701;28;20491;-89
2023/06/16 05:04:04;;;;;;;13.00;5.13;;;14.90;1.00;;;;;;5041607;28;20421;-89
2023/06/16 05:06:37;;;;;;;11.70;5.30;;;14.80;1.00;;;;;;5070541;28;20422;-89
2023/06/16 05:12:25;;;;;;;10.20;5.50;;;15.10;1.00;;;;;;5062001;28;20402;-87
2023/06/16 05:14:52;;;;;;;10.53;5.40;;;15.20;1.00;;;;;;5051181;28;20498;-87
2023/06/16 05:17:18;;;;;;;9.83;5.07;;;15.30;1.00;;;;;;5052165;28;20488;-88
2023/06/16 05:19:52;;;;;;;7.13;4.90;;;15.30;1.00;;;;;;5055365;28;20409;-88
2023/06/16 05:22:23;;;;;;;8.97;5.80;;;15.40;1.00;;;;;;5055459;28;20484;-89
2023/06/16 05:31:35;;;;;;;6.70;4.67;;;15.90;1.00;;;;;;5036468;28;20416;-88
2023/06/16 05:34:35;;;;;;;8.57;5.03;;;16.00;1.00;;;;;;5058582;28;20430;-88
2023/06/16 05:37:34;;;;;;;12.60;5.00;;;16.20;1.00;;;;;;5061499;28;20432;-88
2023/06/16 05:40:16;;;;;;;7.80;5.17;;;16.30;1.00;;;;;;5050611;28;20438;-88
2023/06/16 05:43:28;;;;;;;9.10;5.10;;;16.40;1.00;;;;;;5055082;28;20440;-87
2023/06/16 05:45:58;;;;;;;8.67;4.63;;;16.60;1.00;;;;;;5053859;28;20407;-87
2023/06/16 05:48:58;;;;;;;23.73;5.83;;;16.80;1.00;;;;;;5053896;28;20430;-87
2023/06/16 05:52:05;;;;;;;10.93;5.13;;;16.90;1.00;;;;;;5053063;28;20430;-87
2023/06/16 05:58:04;;;;;;;22.23;4.53;;;17.40;1.00;;;;;;5051540;28;20464;-89
2023/06/16 06:03:52;;;;;;;12.80;3.60;;;17.80;1.00;;;;;;5050090;28;20479;-88
2023/06/16 06:06:22;;;;;;;8.07;4.00;;;18.00;1.00;;;;;;5056640;28;20399;-89
2023/06/16 06:09:34;;;;;;;4.53;4.10;;;18.20;1.00;;;;;;5048452;28;20198;-89
2023/06/16 06:15:22;;;;;;;12.60;4.60;;;18.70;1.00;;;;;;5049797;28;21020;-89
2023/06/16 06:24:31;;;;;;;9.10;3.83;;;19.30;1.00;;;;;;5037242;28;20529;-89
2023/06/16 06:27:22;;;;;;;10.23;3.93;;;19.50;1.00;;;;;;5048493;28;20430;-85
2023/06/16 06:29:58;;;;;;;4.93;3.80;;;19.60;1.00;;;;;;5054099;28;20229;-86
2023/06/16 06:33:10;;;;;;;6.87;3.63;;;19.80;1.00;;;;;;5054540;28;20400;-86
2023/06/16 06:36:16;;;;;;;5.83;4.03;;;20.00;1.00;;;;;;5054638;28;20417;-85
2023/06/16 06:38:56;;;;;;;4.63;3.50;;;20.10;1.00;;;;;;5052294;28;20435;-86
2023/06/16 06:45:28;;;;;;;12.67;3.90;;;20.40;1.00;;;;;;5052478;28;20401;-89
2023/06/16 06:52:10;;;;;;;4.30;3.50;;;20.70;1.00;;;;;;5052316;28;20457;-89
2023/06/16 06:55:22;;;;;;;8.33;3.53;;;20.90;1.00;;;;;;5064643;28;20440;-89
2023/06/16 06:58:11;;;;;;;13.97;3.60;;;21.10;1.00;;;;;;5068801;28;20543;-88
2023/06/16 07:00:37;;;;;;;8.17;3.60;;;21.30;1.00;;;;;;5048216;28;20441;-89
2023/06/16 07:03:18;;;;;;;7.20;4.37;;;21.40;1.00;;;;;;5052168;28;20535;-88
2023/06/16 07:05:44;;;;;;;6.97;4.10;;;21.60;1.00;;;;;;5069951;28;20281;-88
2023/06/16 07:08:22;;;;;;;5.87;3.97;;;21.80;1.00;;;;;;5049210;28;21126;-89
2023/06/16 07:10:59;;;;;;;7.27;3.80;;;21.90;1.00;;;;;;5037273;28;20198;-88
2023/06/16 07:13:40;;;;;;;8.43;3.87;;;22.20;1.00;;;;;;5053164;28;20520;-85
2023/06/16 07:16:10;;;;;;;6.87;4.20;;;22.20;1.00;;;;;;5069057;28;20928;-84
2023/06/16 07:18:36;;;;;;;3.57;3.27;;;22.40;1.00;;;;;;5058103;28;20449;-85
2023/06/16 07:21:10;;;;;;;9.33;3.73;;;22.50;1.00;;;;;;5046987;28;20443;-85
2023/06/16 07:27:02;;;;;;;6.97;3.60;;;22.80;1.00;;;;;;5047079;28;20395;-88
2023/06/16 07:30:22;;;;;;;6.10;4.20;;;22.90;1.00;;;;;;5038774;28;20427;-85
2023/06/16 07:33:28;;;;;;;12.03;3.80;;;23.00;1.00;;;;;;5063585;28;20524;-85
2023/06/16 07:36:05;;;;;;;6.23;3.70;;;23.00;1.00;;;;;;5068948;28;20531;-85
2023/06/16 07:39:22;;;;;;;7.93;3.80;;;23.10;1.00;;;;;;5061847;28;20437;-85
2023/06/16 07:41:48;;;;;;;11.70;4.17;;;23.40;1.00;;;;;;5052475;28;20463;-85
2023/06/16 07:48:28;;;;;;;6.40;4.17;;;23.50;1.00;;;;;;5055791;28;20604;-86
2023/06/16 07:50:58;;;;;;;6.73;3.97;;;23.60;1.00;;;;;;5041644;28;20420;-85
2023/06/16 07:53:28;;;;;;;4.23;3.73;;;23.60;1.00;;;;;;5057025;28;21039;-85
2023/06/16 07:56:10;;;;;;;11.43;4.07;;;23.70;1.00;;;;;;5052393;28;20427;-85
2023/06/16 07:58:58;;;;;;;8.60;4.30;;;23.80;1.00;;;;;;5063447;28;20445;-79
2023/06/16 08:01:28;;;;;;;6.13;3.87;;;23.80;1.00;;;;;;5051610;28;20458;-85
2023/06/16 08:03:54;;;;;;;4.93;3.87;;;23.80;1.00;;;;;;5042939;28;20444;-85
2023/06/16 08:06:20;;;;;;;7.13;4.10;;;23.90;1.00;;;;;;5043432;28;20432;-87
2023/06/16 08:09:10;;;;;;;16.33;4.00;;;24.10;1.00;;;;;;5054371;28;20184;-87
2023/06/16 08:11:53;;;;;;;5.17;3.93;;;24.20;1.00;;;;;;5068844;28;20655;-87
2023/06/16 08:18:17;;;;;;;3.57;3.27;;;24.40;1.00;;;;;;5054210;28;20494;-82
2023/06/16 08:21:06;;;;;;;4.20;3.77;;;24.40;1.00;;;;;;5055167;28;20948;-81
2023/06/16 08:24:05;;;;;;;4.83;3.97;;;24.50;1.00;;;;;;5054094;28;20440;-82
2023/06/16 08:26:31;;;;;;;4.27;3.87;;;24.60;1.00;;;;;;5047364;28;20463;-81
2023/06/16 08:29:22;;;;;;;6.07;3.97;;;24.60;1.00;;;;;;5056461;28;21110;-79
2023/06/16 08:31:48;;;;;;;4.40;4.00;;;24.60;1.00;;;;;;5050559;28;20427;-81
2023/06/16 08:34:23;;;;;;;4.77;3.40;;;24.60;1.00;;;;;;5053734;28;20421;-81
2023/06/16 08:36:53;;;;;;;5.73;4.20;;;24.60;1.00;;;;;;5059590;28;20431;-80
2023/06/16 08:39:35;;;;;;;13.70;3.60;;;24.70;1.00;;;;;;5055061;28;20977;-81
2023/06/16 08:42:05;;;;;;;4.80;3.67;;;24.60;1.00;;;;;;5055877;28;20637;-81
2023/06/16 08:44:47;;;;;;;4.87;4.00;;;24.80;1.00;;;;;;5060084;28;20423;-82
2023/06/16 08:47:42;;;;;;;4.27;3.60;;;24.90;1.00;;;;;;5043606;28;20469;-81
2023/06/16 08:50:52;;;;;;;6.93;4.13;;;25.10;1.00;;;;;;5042504;28;20431;-81
2023/06/16 08:53:24;;;;;;;6.43;3.77;;;25.20;1.00;;;;;;5053219;28;20486;-81
2023/06/16 08:55:53;;;;;;;7.97;4.00;;;25.30;1.00;;;;;;5055903;28;20413;-81
2023/06/16 08:58:41;;;;;;;7.43;3.73;;;25.30;1.00;;;;;;5055021;28;20424;-80
2023/06/16 09:01:17;;;;;;;8.27;3.63;;;25.40;1.00;;;;;;5038044;28;20402;-81
2023/06/16 09:03:47;;;;;;;4.83;3.53;;;25.60;1.00;;;;;;5055567;28;20443;-81
2023/06/16 09:06:14;;;;;;;4.63;4.00;;;25.70;1.00;;;;;;5049109;28;20417;-80
2023/06/16 09:08:47;;;;;;;12.83;3.90;;;25.80;1.00;;;;;;5055488;28;20419;-80
2023/06/16 09:11:31;;;;;;;6.23;3.80;;;25.50;1.00;;;;;;5061712;28;20444;-81
2023/06/16 09:13:57;;;;;;;12.90;3.60;;;25.70;1.00;;;;;;5055737;28;20416;-80
2023/06/16 09:16:24;;;;;;;5.53;4.03;;;25.70;1.00;;;;;;5055111;28;20419;-81
2023/06/16 09:19:07;;;;;;;7.00;3.97;;;25.90;1.00;;;;;;5055096;28;20650;-80
2023/06/16 09:21:37;;;;;;;7.60;3.90;;;25.80;1.00;;;;;;5055186;28;20528;-81
2023/06/16 09:24:05;;;;;;;4.33;3.67;;;25.80;1.00;;;;;;5048194;28;20434;-81
2023/06/16 09:27:12;;;;;;;5.33;3.90;;;26.00;1.00;;;;;;5055087;28;20413;-81
2023/06/16 09:29:38;;;;;;;10.90;3.60;;;26.10;1.00;;;;;;5054609;28;20415;-80
2023/06/16 09:32:11;;;;;;;4.40;4.00;;;26.40;1.00;;;;;;5055168;28;20449;-80
2023/06/16 09:34:53;;;;;;;8.90;4.13;;;26.70;1.00;;;;;;5054811;28;20934;-80
2023/06/16 09:37:47;;;;;;;4.63;3.90;;;26.70;1.00;;;;;;5043004;28;20441;-81
2023/06/16 09:40:58;;;;;;;5.20;4.70;;;26.70;1.00;;;;;;5054898;28;20547;-81
2023/06/16 09:44:02;;;;;;;10.67;4.90;;;26.90;1.00;;;;;;5054639;28;20452;-81
2023/06/16 09:46:29;;;;;;;5.80;4.00;;;27.40;1.00;;;;;;5055242;28;20426;-81
2023/06/16 09:48:55;;;;;;;4.17;3.77;;;27.30;1.00;;;;;;5054794;28;20494;-80
2023/06/16 09:51:23;;;;;;;5.07;4.30;;;27.40;1.00;;;;;;5054773;28;20514;-80
2023/06/16 09:53:54;;;;;;;6.50;3.63;;;27.60;1.00;;;;;;5054760;28;20194;-81
2023/06/16 09:56:59;;;;;;;4.23;3.47;;;27.60;1.00;;;;;;5054780;28;20479;-81
2023/06/16 09:59:27;;;;;;;10.20;3.73;;;27.30;1.00;;;;;;5053917;28;20447;-75
2023/06/16 10:01:55;;;;;;;8.33;3.83;;;27.20;1.00;;;;;;5054118;28;20471;-75
2023/06/16 10:04:23;;;;;;;5.07;3.73;;;27.30;1.00;;;;;;5056340;28;20892;-75
2023/06/16 10:06:56;;;;;;;4.53;3.47;;;27.10;1.00;;;;;;5039885;28;20435;-75
2023/06/16 10:09:27;;;;;;;5.80;3.70;;;27.30;1.00;;;;;;5048108;28;20466;-76
2023/06/16 10:11:59;;;;;;;8.60;4.30;;;27.70;1.00;;;;;;5047371;28;20897;-75
2023/06/16 10:14:35;;;;;;;5.60;3.70;;;27.70;1.00;;;;;;5054225;28;20771;-80
2023/06/16 10:17:01;;;;;;;5.50;4.37;;;28.20;1.00;;;;;;5052272;28;20445;-80
2023/06/16 10:20:00;;;;;;;5.40;4.37;;;28.80;1.00;;;;;;5053947;28;20421;-81
2023/06/16 10:22:29;;;;;;;8.83;4.43;;;28.80;1.00;;;;;;5036510;28;20480;-80
2023/06/16 10:25:00;;;;;;;4.43;3.77;;;29.10;1.00;;;;;;5041219;28;20440;-80
2023/06/16 10:27:53;;;;;;;5.70;3.90;;;29.40;1.00;;;;;;5034149;28;20779;-81
2023/06/16 10:30:35;;;;;;;5.30;3.87;;;29.00;1.00;;;;;;5033112;28;20425;-80
2023/06/16 10:33:19;;;;;;;4.50;4.00;;;28.80;1.00;;;;;;5033710;28;20412;-81
2023/06/16 10:36:09;;;;;;;6.00;4.10;;;28.70;1.00;;;;;;5033820;28;20484;-80
2023/06/16 10:38:35;;;;;;;6.80;4.20;;;28.60;1.00;;;;;;5034143;28;20479;-80
2023/06/16 10:41:19;;;;;;;15.67;4.20;;;28.70;1.00;;;;;;5034159;28;20973;-81
2023/06/16 10:43:47;;;;;;;9.43;3.77;;;28.80;1.00;;;;;;5034751;28;20425;-81
2023/06/16 10:46:20;;;;;;;12.63;4.30;;;28.70;1.00;;;;;;5034211;28;20446;-76
2023/06/16 10:49:05;;;;;;;6.10;4.13;;;28.40;1.00;;;;;;5034141;28;20452;-75
2023/06/16 10:51:52;;;;;;;5.10;3.70;;;28.40;1.00;;;;;;5035519;28;20427;-75
2023/06/16 10:54:32;;;;;;;12.43;4.47;;;28.10;1.00;;;;;;5027024;28;20426;-75
2023/06/16 10:57:07;;;;;;;5.80;3.80;;;28.00;1.00;;;;;;5039423;28;20415;-75
2023/06/16 10:59:53;;;;;;;7.03;3.70;;;28.00;1.00;;;;;;5033729;28;20398;-75
2023/06/16 11:02:30;;;;;;;8.43;4.07;;;28.10;1.00;;;;;;5033846;28;20472;-75
2023/06/16 11:05:08;;;;;;;8.33;4.20;;;28.20;1.00;;;;;;5020205;28;20437;-75
2023/06/16 11:07:40;;;;;;;4.20;3.90;;;28.50;1.00;;;;;;5032208;28;20429;-75
2023/06/16 11:10:08;;;;;;;4.50;4.10;;;28.60;1.00;;;;;;5033528;28;20436;-75
2023/06/16 11:12:36;;;;;;;7.63;3.90;;;28.70;1.00;;;;;;5044964;28;21021;-75
2023/06/16 11:15:04;;;;;;;5.10;4.10;;;28.60;1.00;;;;;;5038846;28;20446;-80
2023/06/16 11:17:31;;;;;;;15.37;3.83;;;28.50;1.00;;;;;;5034274;28;20472;-76
2023/06/16 11:19:58;;;;;;;8.60;4.07;;;28.50;1.00;;;;;;5042594;28;20430;-76
2023/06/16 11:22:31;;;;;;;4.13;3.73;;;28.30;1.00;;;;;;5033335;28;20941;-76
2023/06/16 11:24:58;;;;;;;10.63;4.17;;;28.20;1.00;;;;;;5033185;28;20430;-75
2023/06/16 11:27:29;;;;;;;4.53;3.83;;;28.10;1.00;;;;;;5031331;28;20437;-75
2023/06/16 11:29:56;;;;;;;4.27;3.87;;;28.10;1.00;;;;;;5037513;28;20400;-75
2023/06/16 11:32:34;;;;;;;5.90;3.73;;;28.10;1.00;;;;;;5041375;28;20419;-76
2023/06/16 11:35:17;;;;;;;6.20;4.00;;;28.10;1.00;;;;;;5041085;28;20440;-76
2023/06/16 11:37:54;;;;;;;6.90;3.20;;;28.20;1.00;;;;;;5037635;28;20458;-75
2023/06/16 11:40:22;;;;;;;4.67;3.20;;;28.50;1.00;;;;;;5037361;28;20423;-76
2023/06/16 11:43:06;;;;;;;4.10;3.27;;;28.70;1.00;;;;;;5037015;28;20531;-75
2023/06/16 11:45:36;;;;;;;4.57;2.80;;;28.80;1.00;;;;;;5031564;28;20433;-76
2023/06/16 11:48:08;;;;;;;3.53;3.23;;;29.00;1.00;;;;;;5032591;28;21052;-75
2023/06/16 11:50:34;;;;;;;4.87;2.90;;;29.10;1.00;;;;;;5034955;28;20430;-75
2023/06/16 11:53:00;;;;;;;4.77;2.70;;;29.30;1.00;;;;;;5037276;28;20425;-75
2023/06/16 11:55:26;;;;;;;8.33;3.17;;;29.40;1.00;;;;;;5037034;28;20418;-75
2023/06/16 11:57:52;;;;;;;3.20;2.90;;;29.60;1.00;;;;;;5036821;28;20407;-75
2023/06/16 12:00:21;;;;;;;7.47;2.40;;;29.90;1.00;;;;;;5036334;28;20458;-75
2023/06/16 12:02:49;;;;;;;9.23;3.10;;;30.30;1.00;;;;;;5037614;28;20455;-75
2023/06/16 12:05:23;;;;;;;3.27;2.90;;;30.80;1.00;;;;;;5039600;28;20430;-75
2023/06/16 12:07:49;;;;;;;3.93;2.80;;;31.10;1.00;;;;;;5036627;28;20420;-76
2023/06/16 12:10:16;;;;;;;3.00;2.80;;;31.70;1.00;;;;;;5036682;28;20421;-76
2023/06/16 12:12:43;;;;;;;9.47;3.20;;;32.10;1.00;;;;;;5046605;28;20454;-75
2023/06/16 12:15:13;;;;;;;4.50;2.90;;;32.30;1.00;;;;;;5035365;28;20435;-75
2023/06/16 12:17:39;;;;;;;8.87;2.83;;;32.10;1.00;;;;;;5036797;28;20851;-81
2023/06/16 12:20:05;;;;;;;6.97;2.83;;;31.80;1.00;;;;;;5036466;28;20403;-81
2023/06/16 12:22:38;;;;;;;4.50;3.23;;;31.40;1.00;;;;;;5034997;28;20462;-79
2023/06/16 12:25:13;;;;;;;4.07;3.43;;;31.00;1.00;;;;;;5036646;28;20865;-79
2023/06/16 12:27:51;;;;;;;5.83;2.80;;;30.60;1.00;;;;;;5023595;28;20410;-79
2023/06/16 12:30:32;;;;;;;6.80;3.30;;;30.30;1.00;;;;;;5031873;28;20422;-79
2023/06/16 12:33:08;;;;;;;3.40;3.10;;;29.90;1.00;;;;;;5036718;28;20415;-73
2023/06/16 12:35:33;;;;;;;5.57;3.40;;;29.60;1.00;;;;;;5040968;28;20797;-74
2023/06/16 12:37:59;;;;;;;5.20;3.13;;;29.40;1.00;;;;;;5043563;28;20488;-73
2023/06/16 12:40:29;;;;;;;3.83;2.83;;;29.30;1.00;;;;;;5035526;28;20168;-73
2023/06/16 12:42:54;;;;;;;5.33;3.10;;;29.10;1.00;;;;;;5036250;28;20282;-73
2023/06/16 12:45:23;;;;;;;3.27;2.97;;;28.90;1.00;;;;;;5036189;28;20442;-73
2023/06/16 12:47:49;;;;;;;5.70;3.40;;;28.80;1.00;;;;;;5040684;28;20222;-79
2023/06/16 12:50:17;;;;;;;6.57;3.40;;;28.70;1.00;;;;;;5036844;28;20466;-78
2023/06/16 12:52:47;;;;;;;4.00;3.57;;;28.50;1.00;;;;;;5035962;28;20668;-78
2023/06/16 12:55:34;;;;;;;14.87;3.70;;;28.00;1.00;;;;;;5035986;28;20420;-78
2023/06/16 12:58:05;;;;;;;4.90;3.40;;;27.60;1.00;;;;;;5035969;28;20472;-78
2023/06/16 13:00:36;;;;;;;5.17;3.53;;;27.80;1.00;;;;;;5035953;28;20503;-78
2023/06/16 13:03:02;;;;;;;5.93;3.30;;;27.80;1.00;;;;;;5032189;28;20488;-73
2023/06/16 13:05:28;;;;;;;4.20;3.40;;;27.80;1.00;;;;;;5035167;28;20438;-73
2023/06/16 13:07:53;;;;;;;5.27;3.50;;;27.80;1.00;;;;;;5035008;28;20780;-73
2023/06/16 13:10:23;;;;;;;5.10;3.57;;;27.90;1.00;;;;;;5026499;28;20184;-73
2023/06/16 13:12:49;;;;;;;11.97;4.07;;;27.80;1.00;;;;;;5033856;28;20190;-73
2023/06/16 13:15:15;;;;;;;10.07;3.30;;;27.80;1.00;;;;;;5035560;28;20415;-73
2023/06/16 13:17:40;;;;;;;6.67;3.93;;;27.90;1.00;;;;;;5035625;28;20184;-78
2023/06/16 13:20:07;;;;;;;6.33;3.27;;;28.00;1.00;;;;;;5035513;28;20429;-78
2023/06/16 13:22:41;;;;;;;8.30;3.30;;;28.30;1.00;;;;;;5036755;28;20692;-79
2023/06/16 13:25:07;;;;;;;4.00;3.53;;;28.10;1.00;;;;;;5035416;28;20429;-78
2023/06/16 13:27:32;;;;;;;4.13;3.50;;;28.20;1.00;;;;;;5035215;28;20422;-78
2023/06/16 13:29:59;;;;;;;8.97;3.67;;;28.20;1.00;;;;;;5039271;28;20644;-78
2023/06/16 13:32:25;;;;;;;7.57;3.63;;;28.20;1.00;;;;;;5026455;28;20798;-73
2023/06/16 13:34:53;;;;;;;3.90;3.60;;;28.30;1.00;;;;;;5034050;28;20436;-73
2023/06/16 13:37:18;;;;;;;5.10;3.80;;;28.40;1.00;;;;;;5035134;28;20647;-73
2023/06/16 13:39:44;;;;;;;5.63;3.50;;;28.40;1.00;;;;;;5035266;28;20442;-73
2023/06/16 13:42:10;;;;;;;5.33;3.23;;;28.40;1.00;;;;;;5034656;28;20540;-73
2023/06/16 13:44:36;;;;;;;8.83;3.53;;;28.30;1.00;;;;;;5035144;28;20181;-73
2023/06/16 13:47:05;;;;;;;5.93;3.60;;;28.20;1.00;;;;;;5023454;28;20184;-78
2023/06/16 13:50:05;;;;;;;7.50;3.70;;;28.30;1.00;;;;;;5035040;28;20179;-78
2023/06/16 13:52:36;;;;;;;4.10;3.63;;;28.50;1.00;;;;;;5024462;28;20992;-78
2023/06/16 13:55:05;;;;;;;14.23;4.10;;;28.60;1.00;;;;;;5034659;28;20948;-80
2023/06/16 13:57:35;;;;;;;6.13;3.70;;;29.20;1.00;;;;;;5038644;28;20972;-79
2023/06/16 14:00:05;;;;;;;4.23;3.43;;;29.70;1.00;;;;;;5034696;28;20766;-78
2023/06/16 14:02:31;;;;;;;4.30;3.27;;;30.40;1.00;;;;;;5035038;28;20467;-73
2023/06/16 14:05:00;;;;;;;4.50;3.70;;;31.10;1.00;;;;;;5034646;28;20425;-74
2023/06/16 14:07:25;;;;;;;6.53;3.00;;;31.50;1.00;;;;;;5033697;28;20211;-74
2023/06/16 14:09:51;;;;;;;5.90;3.83;;;31.60;1.00;;;;;;5033304;28;20450;-74
2023/06/16 14:12:17;;;;;;;5.03;3.50;;;31.60;1.00;;;;;;5035478;28;20188;-73
2023/06/16 14:14:42;;;;;;;7.33;3.63;;;31.70;1.00;;;;;;5031147;28;20239;-73
2023/06/16 14:17:36;;;;;;;4.63;3.50;;;31.70;1.00;;;;;;5033670;28;20237;-78
2023/06/16 14:20:12;;;;;;;4.80;3.47;;;31.30;1.00;;;;;;5024824;28;20195;-78
2023/06/16 14:22:53;;;;;;;5.27;3.00;;;31.00;1.00;;;;;;5049404;28;20458;-79
2023/06/16 14:25:23;;;;;;;8.00;3.70;;;31.00;1.00;;;;;;5034279;28;20589;-78
2023/06/16 14:28:05;;;;;;;9.33;3.40;;;31.10;1.00;;;;;;5040039;28;20438;-78
2023/06/16 14:30:38;;;;;;;6.93;3.50;;;31.30;1.00;;;;;;5036719;28;20803;-78
2023/06/16 14:33:05;;;;;;;4.10;3.00;;;31.00;1.00;;;;;;5034374;28;20502;-79
2023/06/16 14:35:35;;;;;;;12.00;3.30;;;31.10;1.00;;;;;;5033032;28;20775;-79
2023/06/16 14:38:02;;;;;;;4.50;3.60;;;31.10;1.00;;;;;;5025082;28;20961;-79
2023/06/16 14:40:41;;;;;;;6.10;3.40;;;31.50;1.00;;;;;;5033410;28;20469;-78
2023/06/16 14:43:11;;;;;;;6.03;3.10;;;32.00;1.00;;;;;;5033855;28;20513;-79
2023/06/16 14:45:47;;;;;;;6.30;3.27;;;32.10;1.00;;;;;;5032661;28;20763;-78
2023/06/16 14:48:23;;;;;;;5.13;3.77;;;32.20;1.00;;;;;;5034258;28;20782;-80
2023/06/16 14:51:16;;;;;;;4.43;3.13;;;32.50;1.00;;;;;;5033582;28;20772;-79
2023/06/16 14:53:42;;;;;;;7.20;3.77;;;32.80;1.00;;;;;;5033894;28;20418;-78
2023/06/16 14:56:23;;;;;;;3.63;3.33;;;32.50;1.00;;;;;;5033326;28;20439;-80
2023/06/16 14:59:23;;;;;;;3.50;3.20;;;32.30;1.00;;;;;;5033703;28;20184;-80
2023/06/16 15:02:17;;;;;;;3.30;3.00;;;32.00;1.00;;;;;;5032044;28;20817;-79
2023/06/16 15:04:44;;;;;;;15.13;3.23;;;31.60;1.00;;;;;;5032026;28;20497;-73
2023/06/16 15:07:10;;;;;;;4.00;3.30;;;31.30;1.00;;;;;;5027481;28;20451;-73
2023/06/16 15:09:36;;;;;;;4.37;3.17;;;30.90;1.00;;;;;;5035183;28;20453;-73